sensor_id;sensor_type;location;lat;lon;timestamp;temperature;humidity
33476;DHT22;19814;48.224;11.422;2023-05-10T00:01:42;13.80;99.90
33476;DHT22;19814;48.224;11.422;2023-05-10T00:04:08;13.80;99.90
33476;DHT22;19814;48.224;11.422;2023-05-10T00:06:33;13.80;99.90
33476;DHT22;19814;48.224;11.422;2023-05-10T00:08:59;13.80;99.90
33476;DHT22;19814;48.224;11.422;2023-05-10T00:11:24;13.80;99.90
33476;DHT22;19814;48.224;11.422;2023-05-10T00:13:50;13.90;99.90
33476;DHT22;19814;48.224;11.422;2023-05-10T00:16:15;13.90;99.90
33476;DHT22;19814;48.224;11.422;2023-05-10T00:18:41;13.80;99.90
33476;DHT22;19814;48.224;11.422;2023-05-10T00:21:06;13.80;99.90
33476;DHT22;19814;48.224;11.422;2023-05-10T00:23:32;13.70;99.90
33476;DHT22;19814;48.224;11.422;2023-05-10T00:25:57;13.60;99.90
33476;DHT22;19814;48.224;11.422;2023-05-10T00:28:23;13.50;99.90
33476;DHT22;19814;48.224;11.422;2023-05-10T00:30:49;13.40;99.90
33476;DHT22;19814;48.224;11.422;2023-05-10T00:33:14;13.40;99.90
33476;DHT22;19814;48.224;11.422;2023-05-10T00:35:40;13.40;99.90
33476;DHT22;19814;48.224;11.422;2023-05-10T00:38:06;13.40;99.90
33476;DHT22;19814;48.224;11.422;2023-05-10T00:40:32;13.50;99.90
33476;DHT22;19814;48.224;11.422;2023-05-10T00:42:57;13.50;99.90
33476;DHT22;19814;48.224;11.422;2023-05-10T00:45:24;13.50;99.90
33476;DHT22;19814;48.224;11.422;2023-05-10T00:47:50;13.50;99.90
33476;DHT22;19814;48.224;11.422;2023-05-10T00:50:17;13.50;99.90
33476;DHT22;19814;48.224;11.422;2023-05-10T00:52:43;13.40;99.90
33476;DHT22;19814;48.224;11.422;2023-05-10T00:55:10;13.50;99.90
33476;DHT22;19814;48.224;11.422;2023-05-10T00:57:36;13.50;99.90
33476;DHT22;19814;48.224;11.422;2023-05-10T01:00:03;13.60;99.90
33476;DHT22;19814;48.224;11.422;2023-05-10T01:02:28;13.60;99.90
33476;DHT22;19814;48.224;11.422;2023-05-10T01:04:54;13.60;99.90
33476;DHT22;19814;48.224;11.422;2023-05-10T01:07:20;13.60;99.90
33476;DHT22;19814;48.224;11.422;2023-05-10T01:09:45;13.60;99.90
33476;DHT22;19814;48.224;11.422;2023-05-10T01:12:11;13.60;99.90
33476;DHT22;19814;48.224;11.422;2023-05-10T01:14:37;13.50;99.90
33476;DHT22;19814;48.224;11.422;2023-05-10T01:17:04;13.40;99.90
33476;DHT22;19814;48.224;11.422;2023-05-10T01:19:31;13.30;99.90
33476;DHT22;19814;48.224;11.422;2023-05-10T01:25:11;13.30;99.90
33476;DHT22;19814;48.224;11.422;2023-05-10T01:28:07;13.40;99.90
33476;DHT22;19814;48.224;11.422;2023-05-10T01:31:03;13.30;99.90
33476;DHT22;19814;48.224;11.422;2023-05-10T01:36:05;13.30;99.90
33476;DHT22;19814;48.224;11.422;2023-05-10T01:42:25;13.40;99.90
33476;DHT22;19814;48.224;11.422;2023-05-10T01:44:35;13.40;99.90
33476;DHT22;19814;48.224;11.422;2023-05-10T01:47:19;13.40;99.90
33476;DHT22;19814;48.224;11.422;2023-05-10T01:49:51;13.40;99.90
33476;DHT22;19814;48.224;11.422;2023-05-10T01:52:19;13.40;99.90
33476;DHT22;19814;48.224;11.422;2023-05-10T01:54:56;13.30;99.90
33476;DHT22;19814;48.224;11.422;2023-05-10T01:57:29;13.30;99.90
33476;DHT22;19814;48.224;11.422;2023-05-10T01:59:57;13.30;99.90
33476;DHT22;19814;48.224;11.422;2023-05-10T02:02:24;13.30;99.90
33476;DHT22;19814;48.224;11.422;2023-05-10T02:04:51;13.30;99.90
33476;DHT22;19814;48.224;11.422;2023-05-10T02:07:19;13.30;99.90
33476;DHT22;19814;48.224;11.422;2023-05-10T02:09:46;13.30;99.90
33476;DHT22;19814;48.224;11.422;2023-05-10T02:12:13;13.20;99.90
33476;DHT22;19814;48.224;11.422;2023-05-10T02:14:41;13.20;99.90
33476;DHT22;19814;48.224;11.422;2023-05-10T02:17:08;13.20;99.90
33476;DHT22;19814;48.224;11.422;2023-05-10T02:19:35;13.30;99.90
33476;DHT22;19814;48.224;11.422;2023-05-10T02:22:02;13.30;99.90
33476;DHT22;19814;48.224;11.422;2023-05-10T02:24:28;13.30;99.90
33476;DHT22;19814;48.224;11.422;2023-05-10T02:26:55;13.30;99.90
33476;DHT22;19814;48.224;11.422;2023-05-10T02:29:23;13.30;99.90
33476;DHT22;19814;48.224;11.422;2023-05-10T02:31:52;13.30;99.90
33476;DHT22;19814;48.224;11.422;2023-05-10T02:34:21;13.30;99.90
33476;DHT22;19814;48.224;11.422;2023-05-10T02:36:47;13.30;99.90
33476;DHT22;19814;48.224;11.422;2023-05-10T02:39:14;13.30;99.90
33476;DHT22;19814;48.224;11.422;2023-05-10T02:41:42;13.30;99.90
33476;DHT22;19814;48.224;11.422;2023-05-10T02:44:08;13.30;99.90
33476;DHT22;19814;48.224;11.422;2023-05-10T02:46:35;13.30;99.90
33476;DHT22;19814;48.224;11.422;2023-05-10T02:49:02;13.30;99.90
33476;DHT22;19814;48.224;11.422;2023-05-10T02:51:31;13.30;99.90
33476;DHT22;19814;48.224;11.422;2023-05-10T02:53:57;13.30;99.90
33476;DHT22;19814;48.224;11.422;2023-05-10T02:56:29;13.20;99.90
33476;DHT22;19814;48.224;11.422;2023-05-10T02:58:57;13.10;99.90
33476;DHT22;19814;48.224;11.422;2023-05-10T03:01:22;13.10;99.90
33476;DHT22;19814;48.224;11.422;2023-05-10T03:03:48;13.10;99.90
33476;DHT22;19814;48.224;11.422;2023-05-10T03:06:14;13.10;99.90
33476;DHT22;19814;48.224;11.422;2023-05-10T03:08:41;13.10;99.90
33476;DHT22;19814;48.224;11.422;2023-05-10T03:16:50;13.20;99.90
33476;DHT22;19814;48.224;11.422;2023-05-10T03:19:32;13.20;99.90
33476;DHT22;19814;48.224;11.422;2023-05-10T03:22:01;13.20;99.90
33476;DHT22;19814;48.224;11.422;2023-05-10T03:24:30;13.20;99.90
33476;DHT22;19814;48.224;11.422;2023-05-10T03:26:56;13.20;99.90
33476;DHT22;19814;48.224;11.422;2023-05-10T03:29:25;13.20;99.90
33476;DHT22;19814;48.224;11.422;2023-05-10T03:31:51;13.20;99.90
33476;DHT22;19814;48.224;11.422;2023-05-10T03:34:22;13.30;99.90
33476;DHT22;19814;48.224;11.422;2023-05-10T03:36:48;13.30;99.90
33476;DHT22;19814;48.224;11.422;2023-05-10T03:39:13;13.30;99.90
33476;DHT22;19814;48.224;11.422;2023-05-10T03:41:39;13.30;99.90
33476;DHT22;19814;48.224;11.422;2023-05-10T03:44:04;13.30;99.90
33476;DHT22;19814;48.224;11.422;2023-05-10T03:46:30;13.30;99.90
33476;DHT22;19814;48.224;11.422;2023-05-10T03:48:55;13.30;99.90
33476;DHT22;19814;48.224;11.422;2023-05-10T03:51:21;13.30;99.90
33476;DHT22;19814;48.224;11.422;2023-05-10T03:53:47;13.30;99.90
33476;DHT22;19814;48.224;11.422;2023-05-10T03:56:12;13.30;99.90
33476;DHT22;19814;48.224;11.422;2023-05-10T03:58:38;13.30;99.90
33476;DHT22;19814;48.224;11.422;2023-05-10T04:01:04;13.30;99.90
33476;DHT22;19814;48.224;11.422;2023-05-10T04:03:29;13.30;99.90
33476;DHT22;19814;48.224;11.422;2023-05-10T04:05:59;13.30;99.90
33476;DHT22;19814;48.224;11.422;2023-05-10T04:08:26;13.30;99.90
33476;DHT22;19814;48.224;11.422;2023-05-10T04:10:51;13.30;99.90
33476;DHT22;19814;48.224;11.422;2023-05-10T04:13:17;13.30;99.90
33476;DHT22;19814;48.224;11.422;2023-05-10T04:15:42;13.40;99.90
33476;DHT22;19814;48.224;11.422;2023-05-10T04:18:08;13.40;99.90
33476;DHT22;19814;48.224;11.422;2023-05-10T04:20:35;13.40;99.90
33476;DHT22;19814;48.224;11.422;2023-05-10T04:23:01;13.40;99.90
33476;DHT22;19814;48.224;11.422;2023-05-10T04:25:26;13.40;99.90
33476;DHT22;19814;48.224;11.422;2023-05-10T04:27:52;13.40;99.90
33476;DHT22;19814;48.224;11.422;2023-05-10T04:30:17;13.40;99.90
33476;DHT22;19814;48.224;11.422;2023-05-10T04:32:43;13.40;99.90
33476;DHT22;19814;48.224;11.422;2023-05-10T04:35:09;13.40;99.90
33476;DHT22;19814;48.224;11.422;2023-05-10T04:37:35;13.40;99.90
33476;DHT22;19814;48.224;11.422;2023-05-10T04:40:02;13.40;99.90
33476;DHT22;19814;48.224;11.422;2023-05-10T04:42:28;13.40;99.90
33476;DHT22;19814;48.224;11.422;2023-05-10T04:44:54;13.30;99.90
33476;DHT22;19814;48.224;11.422;2023-05-10T04:47:20;13.30;99.90
33476;DHT22;19814;48.224;11.422;2023-05-10T04:49:45;13.30;99.90
33476;DHT22;19814;48.224;11.422;2023-05-10T04:52:11;13.30;99.90
33476;DHT22;19814;48.224;11.422;2023-05-10T04:54:36;13.20;99.90
33476;DHT22;19814;48.224;11.422;2023-05-10T04:57:02;13.20;99.90
33476;DHT22;19814;48.224;11.422;2023-05-10T04:59:28;13.10;99.90
33476;DHT22;19814;48.224;11.422;2023-05-10T05:01:53;13.10;99.90
33476;DHT22;19814;48.224;11.422;2023-05-10T05:04:19;13.00;99.90
33476;DHT22;19814;48.224;11.422;2023-05-10T05:06:44;13.00;99.90
33476;DHT22;19814;48.224;11.422;2023-05-10T05:09:10;13.00;99.90
33476;DHT22;19814;48.224;11.422;2023-05-10T05:11:35;12.90;99.90
33476;DHT22;19814;48.224;11.422;2023-05-10T05:14:01;12.90;99.90
33476;DHT22;19814;48.224;11.422;2023-05-10T05:16:27;12.90;99.90
33476;DHT22;19814;48.224;11.422;2023-05-10T05:18:52;12.80;99.90
33476;DHT22;19814;48.224;11.422;2023-05-10T05:21:19;12.70;99.90
33476;DHT22;19814;48.224;11.422;2023-05-10T05:23:45;12.70;99.90
33476;DHT22;19814;48.224;11.422;2023-05-10T05:26:11;12.60;99.90
33476;DHT22;19814;48.224;11.422;2023-05-10T05:28:37;12.60;99.90
33476;DHT22;19814;48.224;11.422;2023-05-10T05:31:07;12.60;99.90
33476;DHT22;19814;48.224;11.422;2023-05-10T05:33:35;12.60;99.90
33476;DHT22;19814;48.224;11.422;2023-05-10T05:36:05;12.60;99.90
33476;DHT22;19814;48.224;11.422;2023-05-10T05:38:31;12.60;99.90
33476;DHT22;19814;48.224;11.422;2023-05-10T05:40:57;12.60;99.90
33476;DHT22;19814;48.224;11.422;2023-05-10T05:43:22;12.70;99.90
33476;DHT22;19814;48.224;11.422;2023-05-10T05:45:48;12.70;99.90
33476;DHT22;19814;48.224;11.422;2023-05-10T05:48:13;12.80;99.90
33476;DHT22;19814;48.224;11.422;2023-05-10T05:50:39;12.80;99.90
33476;DHT22;19814;48.224;11.422;2023-05-10T05:53:05;12.90;99.90
33476;DHT22;19814;48.224;11.422;2023-05-10T05:55:30;13.00;99.90
33476;DHT22;19814;48.224;11.422;2023-05-10T05:57:57;13.00;99.90
33476;DHT22;19814;48.224;11.422;2023-05-10T06:00:23;13.10;99.90
33476;DHT22;19814;48.224;11.422;2023-05-10T06:02:48;13.20;99.90
33476;DHT22;19814;48.224;11.422;2023-05-10T06:05:14;13.20;99.90
33476;DHT22;19814;48.224;11.422;2023-05-10T06:07:40;13.30;99.90
33476;DHT22;19814;48.224;11.422;2023-05-10T06:10:07;13.30;99.90
33476;DHT22;19814;48.224;11.422;2023-05-10T06:12:33;13.40;99.90
33476;DHT22;19814;48.224;11.422;2023-05-10T06:14:59;13.50;99.90
33476;DHT22;19814;48.224;11.422;2023-05-10T06:17:24;13.50;99.90
33476;DHT22;19814;48.224;11.422;2023-05-10T06:19:50;13.70;99.90
33476;DHT22;19814;48.224;11.422;2023-05-10T06:22:16;13.80;99.90
33476;DHT22;19814;48.224;11.422;2023-05-10T06:24:41;13.90;99.90
33476;DHT22;19814;48.224;11.422;2023-05-10T06:27:07;14.00;99.90
33476;DHT22;19814;48.224;11.422;2023-05-10T06:29:32;14.20;99.90
33476;DHT22;19814;48.224;11.422;2023-05-10T06:31:58;14.30;99.90
33476;DHT22;19814;48.224;11.422;2023-05-10T06:34:24;14.30;99.90
33476;DHT22;19814;48.224;11.422;2023-05-10T06:36:49;14.40;99.90
33476;DHT22;19814;48.224;11.422;2023-05-10T06:39:15;14.40;99.90
33476;DHT22;19814;48.224;11.422;2023-05-10T06:41:41;14.40;99.90
33476;DHT22;19814;48.224;11.422;2023-05-10T06:44:07;14.50;99.90
33476;DHT22;19814;48.224;11.422;2023-05-10T06:46:32;14.50;99.90
33476;DHT22;19814;48.224;11.422;2023-05-10T06:48:58;14.40;99.90
33476;DHT22;19814;48.224;11.422;2023-05-10T06:51:23;14.30;99.90
33476;DHT22;19814;48.224;11.422;2023-05-10T06:53:49;14.20;99.90
33476;DHT22;19814;48.224;11.422;2023-05-10T06:56:14;14.30;99.90
33476;DHT22;19814;48.224;11.422;2023-05-10T06:58:40;14.20;99.90
33476;DHT22;19814;48.224;11.422;2023-05-10T07:01:05;14.30;99.90
33476;DHT22;19814;48.224;11.422;2023-05-10T07:03:31;14.50;99.90
33476;DHT22;19814;48.224;11.422;2023-05-10T07:06:04;14.70;99.90
33476;DHT22;19814;48.224;11.422;2023-05-10T07:08:31;15.10;99.90
33476;DHT22;19814;48.224;11.422;2023-05-10T07:11:04;15.50;99.90
33476;DHT22;19814;48.224;11.422;2023-05-10T07:13:31;15.70;99.90
33476;DHT22;19814;48.224;11.422;2023-05-10T07:15:57;15.90;99.90
33476;DHT22;19814;48.224;11.422;2023-05-10T07:18:22;16.00;99.90
33476;DHT22;19814;48.224;11.422;2023-05-10T07:20:48;16.10;99.90
33476;DHT22;19814;48.224;11.422;2023-05-10T07:23:14;16.50;99.90
33476;DHT22;19814;48.224;11.422;2023-05-10T07:25:39;16.80;99.90
33476;DHT22;19814;48.224;11.422;2023-05-10T07:28:05;16.90;99.90
33476;DHT22;19814;48.224;11.422;2023-05-10T07:30:30;16.80;99.90
33476;DHT22;19814;48.224;11.422;2023-05-10T07:32:56;16.70;99.90
33476;DHT22;19814;48.224;11.422;2023-05-10T07:35:22;16.70;99.90
33476;DHT22;19814;48.224;11.422;2023-05-10T07:37:47;16.60;99.90
33476;DHT22;19814;48.224;11.422;2023-05-10T07:40:13;16.50;99.90
33476;DHT22;19814;48.224;11.422;2023-05-10T07:42:38;16.50;99.90
33476;DHT22;19814;48.224;11.422;2023-05-10T07:45:04;16.40;99.90
33476;DHT22;19814;48.224;11.422;2023-05-10T07:47:30;16.40;99.90
33476;DHT22;19814;48.224;11.422;2023-05-10T07:49:55;16.40;99.90
33476;DHT22;19814;48.224;11.422;2023-05-10T07:52:21;16.50;99.90
33476;DHT22;19814;48.224;11.422;2023-05-10T07:54:46;16.60;99.90
33476;DHT22;19814;48.224;11.422;2023-05-10T07:57:12;16.90;99.90
33476;DHT22;19814;48.224;11.422;2023-05-10T07:59:39;17.20;99.90
33476;DHT22;19814;48.224;11.422;2023-05-10T08:02:06;17.50;99.90
33476;DHT22;19814;48.224;11.422;2023-05-10T08:04:31;17.60;99.90
33476;DHT22;19814;48.224;11.422;2023-05-10T08:06:57;17.80;99.90
33476;DHT22;19814;48.224;11.422;2023-05-10T08:09:22;17.90;99.90
33476;DHT22;19814;48.224;11.422;2023-05-10T08:11:49;18.10;99.90
33476;DHT22;19814;48.224;11.422;2023-05-10T08:14:15;18.10;99.90
33476;DHT22;19814;48.224;11.422;2023-05-10T08:16:40;18.00;99.90
33476;DHT22;19814;48.224;11.422;2023-05-10T08:19:06;17.80;99.90
33476;DHT22;19814;48.224;11.422;2023-05-10T08:21:32;17.60;99.90
33476;DHT22;19814;48.224;11.422;2023-05-10T08:23:57;17.40;99.90
33476;DHT22;19814;48.224;11.422;2023-05-10T08:26:23;17.20;99.90
33476;DHT22;19814;48.224;11.422;2023-05-10T08:28:48;17.10;99.90
33476;DHT22;19814;48.224;11.422;2023-05-10T08:31:14;17.00;99.90
33476;DHT22;19814;48.224;11.422;2023-05-10T08:33:40;16.90;99.90
33476;DHT22;19814;48.224;11.422;2023-05-10T08:36:06;17.00;99.90
33476;DHT22;19814;48.224;11.422;2023-05-10T08:38:32;17.00;99.90
33476;DHT22;19814;48.224;11.422;2023-05-10T08:40:58;17.10;99.90
33476;DHT22;19814;48.224;11.422;2023-05-10T08:43:27;17.10;99.90
33476;DHT22;19814;48.224;11.422;2023-05-10T08:45:54;17.50;99.90
33476;DHT22;19814;48.224;11.422;2023-05-10T08:48:23;18.30;99.90
33476;DHT22;19814;48.224;11.422;2023-05-10T08:50:52;18.70;99.90
33476;DHT22;19814;48.224;11.422;2023-05-10T08:53:20;19.10;99.90
33476;DHT22;19814;48.224;11.422;2023-05-10T08:55:46;20.10;99.90
33476;DHT22;19814;48.224;11.422;2023-05-10T08:58:12;20.70;99.90
33476;DHT22;19814;48.224;11.422;2023-05-10T09:00:37;20.60;98.90
33476;DHT22;19814;48.224;11.422;2023-05-10T09:03:04;20.20;98.40
33476;DHT22;19814;48.224;11.422;2023-05-10T09:05:30;19.80;99.30
33476;DHT22;19814;48.224;11.422;2023-05-10T09:07:56;19.80;99.50
33476;DHT22;19814;48.224;11.422;2023-05-10T09:10:22;20.60;97.90
33476;DHT22;19814;48.224;11.422;2023-05-10T09:12:51;21.30;97.80
33476;DHT22;19814;48.224;11.422;2023-05-10T09:15:17;22.10;95.80
33476;DHT22;19814;48.224;11.422;2023-05-10T09:17:44;22.70;93.70
33476;DHT22;19814;48.224;11.422;2023-05-10T09:20:10;23.00;93.20
33476;DHT22;19814;48.224;11.422;2023-05-10T09:22:36;23.30;93.40
33476;DHT22;19814;48.224;11.422;2023-05-10T09:27:35;24.00;89.70
33476;DHT22;19814;48.224;11.422;2023-05-10T09:30:02;23.70;90.90
33476;DHT22;19814;48.224;11.422;2023-05-10T09:32:41;23.60;90.00
33476;DHT22;19814;48.224;11.422;2023-05-10T09:35:17;23.80;88.50
33476;DHT22;19814;48.224;11.422;2023-05-10T09:37:45;24.00;90.40
33476;DHT22;19814;48.224;11.422;2023-05-10T09:40:18;24.10;86.50
33476;DHT22;19814;48.224;11.422;2023-05-10T09:45:25;23.40;86.00
33476;DHT22;19814;48.224;11.422;2023-05-10T09:47:50;22.90;88.50
33476;DHT22;19814;48.224;11.422;2023-05-10T09:50:16;22.30;87.50
33476;DHT22;19814;48.224;11.422;2023-05-10T09:52:56;21.40;89.40
33476;DHT22;19814;48.224;11.422;2023-05-10T09:55:42;20.80;90.60
33476;DHT22;19814;48.224;11.422;2023-05-10T09:58:10;20.10;91.30
33476;DHT22;19814;48.224;11.422;2023-05-10T10:00:46;19.70;92.00
33476;DHT22;19814;48.224;11.422;2023-05-10T10:03:14;19.40;93.80
33476;DHT22;19814;48.224;11.422;2023-05-10T10:05:41;19.50;93.90
33476;DHT22;19814;48.224;11.422;2023-05-10T10:08:10;19.80;94.70
33476;DHT22;19814;48.224;11.422;2023-05-10T10:10:37;20.40;93.80
33476;DHT22;19814;48.224;11.422;2023-05-10T10:13:04;21.10;93.30
33476;DHT22;19814;48.224;11.422;2023-05-10T10:15:30;21.90;92.10
33476;DHT22;19814;48.224;11.422;2023-05-10T10:17:56;22.80;90.70
33476;DHT22;19814;48.224;11.422;2023-05-10T10:20:22;23.30;89.50
33476;DHT22;19814;48.224;11.422;2023-05-10T10:22:48;23.70;88.20
33476;DHT22;19814;48.224;11.422;2023-05-10T10:25:15;23.70;87.20
33476;DHT22;19814;48.224;11.422;2023-05-10T10:35:34;21.10;91.20
33476;DHT22;19814;48.224;11.422;2023-05-10T10:38:00;20.70;91.10
33476;DHT22;19814;48.224;11.422;2023-05-10T10:40:31;20.20;92.00
33476;DHT22;19814;48.224;11.422;2023-05-10T10:42:57;19.80;92.20
33476;DHT22;19814;48.224;11.422;2023-05-10T10:45:26;19.50;94.10
33476;DHT22;19814;48.224;11.422;2023-05-10T10:48:21;19.20;94.40
33476;DHT22;19814;48.224;11.422;2023-05-10T10:50:47;18.90;94.20
33476;DHT22;19814;48.224;11.422;2023-05-10T10:53:13;18.60;93.80
33476;DHT22;19814;48.224;11.422;2023-05-10T10:55:48;18.40;94.00
33476;DHT22;19814;48.224;11.422;2023-05-10T10:58:29;18.10;95.00
33476;DHT22;19814;48.224;11.422;2023-05-10T11:01:16;17.90;95.70
33476;DHT22;19814;48.224;11.422;2023-05-10T11:08:57;17.10;98.80
33476;DHT22;19814;48.224;11.422;2023-05-10T11:11:22;16.70;99.90
33476;DHT22;19814;48.224;11.422;2023-05-10T11:13:48;16.30;99.90
33476;DHT22;19814;48.224;11.422;2023-05-10T11:16:24;16.10;99.90
33476;DHT22;19814;48.224;11.422;2023-05-10T11:19:11;15.90;99.90
33476;DHT22;19814;48.224;11.422;2023-05-10T11:24:16;15.80;99.90
33476;DHT22;19814;48.224;11.422;2023-05-10T11:26:42;15.80;99.90
33476;DHT22;19814;48.224;11.422;2023-05-10T11:29:08;15.80;99.90
33476;DHT22;19814;48.224;11.422;2023-05-10T11:31:34;15.80;99.90
33476;DHT22;19814;48.224;11.422;2023-05-10T11:34:00;15.80;99.90
33476;DHT22;19814;48.224;11.422;2023-05-10T11:36:35;15.80;99.90
33476;DHT22;19814;48.224;11.422;2023-05-10T11:39:01;15.80;99.90
33476;DHT22;19814;48.224;11.422;2023-05-10T11:41:29;15.70;99.90
33476;DHT22;19814;48.224;11.422;2023-05-10T11:43:56;15.70;99.90
33476;DHT22;19814;48.224;11.422;2023-05-10T11:46:25;15.80;99.90
33476;DHT22;19814;48.224;11.422;2023-05-10T11:48:55;15.80;99.90
33476;DHT22;19814;48.224;11.422;2023-05-10T11:51:23;15.80;99.90
33476;DHT22;19814;48.224;11.422;2023-05-10T11:53:50;15.80;99.90
33476;DHT22;19814;48.224;11.422;2023-05-10T11:56:17;15.80;99.90
33476;DHT22;19814;48.224;11.422;2023-05-10T11:58:43;15.80;99.90
33476;DHT22;19814;48.224;11.422;2023-05-10T12:01:09;15.80;99.90
33476;DHT22;19814;48.224;11.422;2023-05-10T12:03:35;15.80;99.90
33476;DHT22;19814;48.224;11.422;2023-05-10T12:06:02;15.80;99.90
33476;DHT22;19814;48.224;11.422;2023-05-10T12:08:29;15.80;99.90
33476;DHT22;19814;48.224;11.422;2023-05-10T12:11:07;15.80;99.90
33476;DHT22;19814;48.224;11.422;2023-05-10T12:13:36;15.80;99.90
33476;DHT22;19814;48.224;11.422;2023-05-10T12:16:13;15.80;99.90
33476;DHT22;19814;48.224;11.422;2023-05-10T12:18:40;15.70;99.90
33476;DHT22;19814;48.224;11.422;2023-05-10T12:21:05;15.50;99.90
33476;DHT22;19814;48.224;11.422;2023-05-10T12:23:31;15.30;99.90
33476;DHT22;19814;48.224;11.422;2023-05-10T12:26:02;15.20;99.90
33476;DHT22;19814;48.224;11.422;2023-05-10T12:28:30;15.00;99.90
33476;DHT22;19814;48.224;11.422;2023-05-10T12:30:58;14.90;99.90
33476;DHT22;19814;48.224;11.422;2023-05-10T12:33:24;14.80;99.90
33476;DHT22;19814;48.224;11.422;2023-05-10T12:35:51;14.80;99.90
33476;DHT22;19814;48.224;11.422;2023-05-10T12:40:55;14.90;99.90
33476;DHT22;19814;48.224;11.422;2023-05-10T12:43:21;15.00;99.90
33476;DHT22;19814;48.224;11.422;2023-05-10T12:45:47;15.10;99.90
33476;DHT22;19814;48.224;11.422;2023-05-10T12:48:17;15.10;99.90
33476;DHT22;19814;48.224;11.422;2023-05-10T12:50:42;15.20;99.90
33476;DHT22;19814;48.224;11.422;2023-05-10T12:53:08;15.30;99.90
33476;DHT22;19814;48.224;11.422;2023-05-10T12:55:33;15.30;99.90
33476;DHT22;19814;48.224;11.422;2023-05-10T12:57:59;15.30;99.90
33476;DHT22;19814;48.224;11.422;2023-05-10T13:00:25;15.40;99.90
33476;DHT22;19814;48.224;11.422;2023-05-10T13:02:50;15.50;99.90
33476;DHT22;19814;48.224;11.422;2023-05-10T13:05:16;15.60;99.90
33476;DHT22;19814;48.224;11.422;2023-05-10T13:07:41;15.60;99.90
33476;DHT22;19814;48.224;11.422;2023-05-10T13:10:09;15.70;99.90
33476;DHT22;19814;48.224;11.422;2023-05-10T13:12:35;15.70;99.90
33476;DHT22;19814;48.224;11.422;2023-05-10T13:15:00;15.60;99.90
33476;DHT22;19814;48.224;11.422;2023-05-10T13:17:26;15.50;99.90
33476;DHT22;19814;48.224;11.422;2023-05-10T13:19:52;15.40;99.90
33476;DHT22;19814;48.224;11.422;2023-05-10T13:22:17;15.30;99.90
33476;DHT22;19814;48.224;11.422;2023-05-10T13:24:43;15.20;99.90
33476;DHT22;19814;48.224;11.422;2023-05-10T13:27:08;15.00;99.90
33476;DHT22;19814;48.224;11.422;2023-05-10T13:29:34;15.00;99.90
33476;DHT22;19814;48.224;11.422;2023-05-10T13:31:59;14.90;99.90
33476;DHT22;19814;48.224;11.422;2023-05-10T13:34:25;14.80;99.90
33476;DHT22;19814;48.224;11.422;2023-05-10T13:36:50;14.60;99.90
33476;DHT22;19814;48.224;11.422;2023-05-10T13:39:16;14.60;99.90
33476;DHT22;19814;48.224;11.422;2023-05-10T13:41:42;14.40;99.90
33476;DHT22;19814;48.224;11.422;2023-05-10T13:44:07;14.20;99.90
33476;DHT22;19814;48.224;11.422;2023-05-10T13:46:33;14.00;99.90
33476;DHT22;19814;48.224;11.422;2023-05-10T13:48:58;13.90;99.90
33476;DHT22;19814;48.224;11.422;2023-05-10T13:51:24;13.80;99.90
33476;DHT22;19814;48.224;11.422;2023-05-10T13:53:50;13.90;99.90
33476;DHT22;19814;48.224;11.422;2023-05-10T13:56:15;14.10;99.90
33476;DHT22;19814;48.224;11.422;2023-05-10T13:58:41;14.20;99.90
33476;DHT22;19814;48.224;11.422;2023-05-10T14:01:06;14.30;99.90
33476;DHT22;19814;48.224;11.422;2023-05-10T14:03:32;14.20;99.90
33476;DHT22;19814;48.224;11.422;2023-05-10T14:05:58;14.10;99.90
33476;DHT22;19814;48.224;11.422;2023-05-10T14:08:23;13.90;99.90
33476;DHT22;19814;48.224;11.422;2023-05-10T14:10:49;13.70;99.90
33476;DHT22;19814;48.224;11.422;2023-05-10T14:13:15;13.70;99.90
33476;DHT22;19814;48.224;11.422;2023-05-10T14:15:41;13.70;99.90
33476;DHT22;19814;48.224;11.422;2023-05-10T14:18:07;13.70;99.90
33476;DHT22;19814;48.224;11.422;2023-05-10T14:20:32;13.80;99.90
33476;DHT22;19814;48.224;11.422;2023-05-10T14:22:59;13.80;99.90
33476;DHT22;19814;48.224;11.422;2023-05-10T14:25:25;13.70;99.90
33476;DHT22;19814;48.224;11.422;2023-05-10T14:27:50;13.70;99.90
33476;DHT22;19814;48.224;11.422;2023-05-10T14:30:16;13.60;99.90
33476;DHT22;19814;48.224;11.422;2023-05-10T14:32:42;13.50;99.90
33476;DHT22;19814;48.224;11.422;2023-05-10T14:35:08;13.50;99.90
33476;DHT22;19814;48.224;11.422;2023-05-10T14:37:34;13.50;99.90
33476;DHT22;19814;48.224;11.422;2023-05-10T14:39:59;13.50;99.90
33476;DHT22;19814;48.224;11.422;2023-05-10T14:42:25;13.40;99.90
33476;DHT22;19814;48.224;11.422;2023-05-10T14:44:51;13.50;99.90
33476;DHT22;19814;48.224;11.422;2023-05-10T14:47:16;13.50;99.90
33476;DHT22;19814;48.224;11.422;2023-05-10T14:49:42;13.50;99.90
33476;DHT22;19814;48.224;11.422;2023-05-10T14:52:08;13.60;99.90
33476;DHT22;19814;48.224;11.422;2023-05-10T14:54:34;13.60;99.90
33476;DHT22;19814;48.224;11.422;2023-05-10T14:56:59;13.70;99.90
33476;DHT22;19814;48.224;11.422;2023-05-10T14:59:25;13.80;99.90
33476;DHT22;19814;48.224;11.422;2023-05-10T15:01:51;13.80;99.90
33476;DHT22;19814;48.224;11.422;2023-05-10T15:04:17;13.80;99.90
33476;DHT22;19814;48.224;11.422;2023-05-10T15:06:42;13.80;99.90
33476;DHT22;19814;48.224;11.422;2023-05-10T15:09:08;13.80;99.90
33476;DHT22;19814;48.224;11.422;2023-05-10T15:11:34;13.90;99.90
33476;DHT22;19814;48.224;11.422;2023-05-10T15:14:00;13.90;99.90
33476;DHT22;19814;48.224;11.422;2023-05-10T15:16:26;14.00;99.90
33476;DHT22;19814;48.224;11.422;2023-05-10T15:18:51;14.10;99.90
33476;DHT22;19814;48.224;11.422;2023-05-10T15:21:17;14.10;99.90
33476;DHT22;19814;48.224;11.422;2023-05-10T15:23:42;14.10;99.90
33476;DHT22;19814;48.224;11.422;2023-05-10T15:26:08;14.00;99.90
33476;DHT22;19814;48.224;11.422;2023-05-10T15:28:33;14.00;99.90
33476;DHT22;19814;48.224;11.422;2023-05-10T15:30:59;14.00;99.90
33476;DHT22;19814;48.224;11.422;2023-05-10T15:33:25;13.90;99.90
33476;DHT22;19814;48.224;11.422;2023-05-10T15:35:52;13.90;99.90
33476;DHT22;19814;48.224;11.422;2023-05-10T15:38:19;13.80;99.90
33476;DHT22;19814;48.224;11.422;2023-05-10T15:40:44;13.80;99.90
33476;DHT22;19814;48.224;11.422;2023-05-10T15:43:10;13.70;99.90
33476;DHT22;19814;48.224;11.422;2023-05-10T15:45:35;13.70;99.90
33476;DHT22;19814;48.224;11.422;2023-05-10T15:48:01;13.60;99.90
33476;DHT22;19814;48.224;11.422;2023-05-10T15:50:26;13.70;99.90
33476;DHT22;19814;48.224;11.422;2023-05-10T15:52:52;13.60;99.90